sensor_id;sensor_type;location;lat;lon;timestamp;P1;durP1;ratioP1;P2;durP2;ratioP2
75417;SDS011;63997;52.112;5.420;2023-08-08T00:01:18;9.57;;;2.42;;
75417;SDS011;63997;52.112;5.420;2023-08-08T00:03:45;5.68;;;2.50;;
75417;SDS011;63997;52.112;5.420;2023-08-08T00:06:11;3.87;;;2.00;;
75417;SDS011;63997;52.112;5.420;2023-08-08T00:08:38;7.85;;;2.10;;
75417;SDS011;63997;52.112;5.420;2023-08-08T00:11:06;5.07;;;2.15;;
75417;SDS011;63997;52.112;5.420;2023-08-08T00:13:32;5.18;;;2.25;;
75417;SDS011;63997;52.112;5.420;2023-08-08T00:15:59;6.78;;;2.10;;
75417;SDS011;63997;52.112;5.420;2023-08-08T00:18:26;5.93;;;1.80;;
75417;SDS011;63997;52.112;5.420;2023-08-08T00:20:52;4.75;;;2.08;;
75417;SDS011;63997;52.112;5.420;2023-08-08T00:23:18;4.97;;;1.83;;
75417;SDS011;63997;52.112;5.420;2023-08-08T00:25:45;5.97;;;2.08;;
75417;SDS011;63997;52.112;5.420;2023-08-08T00:28:16;8.10;;;1.95;;
75417;SDS011;63997;52.112;5.420;2023-08-08T00:30:43;14.10;;;2.17;;
75417;SDS011;63997;52.112;5.420;2023-08-08T00:33:09;8.90;;;1.98;;
75417;SDS011;63997;52.112;5.420;2023-08-08T00:35:36;5.38;;;1.80;;
75417;SDS011;63997;52.112;5.420;2023-08-08T00:38:02;7.90;;;1.75;;
75417;SDS011;63997;52.112;5.420;2023-08-08T00:40:29;8.40;;;1.90;;
75417;SDS011;63997;52.112;5.420;2023-08-08T00:42:55;9.10;;;1.50;;
75417;SDS011;63997;52.112;5.420;2023-08-08T00:45:22;12.65;;;1.58;;
75417;SDS011;63997;52.112;5.420;2023-08-08T00:47:48;7.65;;;1.60;;
75417;SDS011;63997;52.112;5.420;2023-08-08T00:50:15;4.25;;;1.38;;
75417;SDS011;63997;52.112;5.420;2023-08-08T00:52:41;8.13;;;1.27;;
75417;SDS011;63997;52.112;5.420;2023-08-08T00:55:10;7.23;;;1.77;;
75417;SDS011;63997;52.112;5.420;2023-08-08T00:57:36;9.48;;;1.40;;
75417;SDS011;63997;52.112;5.420;2023-08-08T01:00:05;7.63;;;2.20;;
75417;SDS011;63997;52.112;5.420;2023-08-08T01:02:34;7.25;;;1.75;;
75417;SDS011;63997;52.112;5.420;2023-08-08T01:05:00;7.53;;;1.33;;
75417;SDS011;63997;52.112;5.420;2023-08-08T01:10:05;4.53;;;1.27;;
75417;SDS011;63997;52.112;5.420;2023-08-08T01:12:37;9.18;;;1.60;;
75417;SDS011;63997;52.112;5.420;2023-08-08T01:15:07;8.18;;;1.30;;
75417;SDS011;63997;52.112;5.420;2023-08-08T01:17:35;7.20;;;1.50;;
75417;SDS011;63997;52.112;5.420;2023-08-08T01:20:03;3.90;;;1.57;;
75417;SDS011;63997;52.112;5.420;2023-08-08T01:22:45;5.65;;;1.38;;
75417;SDS011;63997;52.112;5.420;2023-08-08T01:25:19;6.22;;;1.00;;
75417;SDS011;63997;52.112;5.420;2023-08-08T01:27:46;5.78;;;1.50;;
75417;SDS011;63997;52.112;5.420;2023-08-08T01:30:12;10.38;;;1.88;;
75417;SDS011;63997;52.112;5.420;2023-08-08T01:32:41;8.17;;;1.40;;
75417;SDS011;63997;52.112;5.420;2023-08-08T01:35:08;5.85;;;1.08;;
75417;SDS011;63997;52.112;5.420;2023-08-08T01:37:36;4.47;;;1.48;;
75417;SDS011;63997;52.112;5.420;2023-08-08T01:40:08;10.07;;;2.20;;
75417;SDS011;63997;52.112;5.420;2023-08-08T01:42:36;7.60;;;1.50;;
75417;SDS011;63997;52.112;5.420;2023-08-08T01:45:03;9.57;;;1.77;;
75417;SDS011;63997;52.112;5.420;2023-08-08T01:47:30;7.05;;;1.55;;
75417;SDS011;63997;52.112;5.420;2023-08-08T01:49:57;8.02;;;1.45;;
75417;SDS011;63997;52.112;5.420;2023-08-08T01:52:23;7.80;;;1.58;;
75417;SDS011;63997;52.112;5.420;2023-08-08T01:54:50;11.63;;;2.30;;
75417;SDS011;63997;52.112;5.420;2023-08-08T01:57:16;8.63;;;2.47;;
75417;SDS011;63997;52.112;5.420;2023-08-08T01:59:44;10.57;;;2.25;;
75417;SDS011;63997;52.112;5.420;2023-08-08T02:02:11;9.05;;;1.65;;
75417;SDS011;63997;52.112;5.420;2023-08-08T02:04:38;8.90;;;1.73;;
75417;SDS011;63997;52.112;5.420;2023-08-08T02:07:04;3.70;;;1.83;;
75417;SDS011;63997;52.112;5.420;2023-08-08T02:09:31;8.67;;;1.43;;
75417;SDS011;63997;52.112;5.420;2023-08-08T02:11:57;7.68;;;1.67;;
75417;SDS011;63997;52.112;5.420;2023-08-08T02:14:24;5.68;;;2.00;;
75417;SDS011;63997;52.112;5.420;2023-08-08T02:16:50;8.88;;;1.60;;
75417;SDS011;63997;52.112;5.420;2023-08-08T02:19:17;9.32;;;1.73;;
75417;SDS011;63997;52.112;5.420;2023-08-08T02:21:43;8.30;;;2.07;;
75417;SDS011;63997;52.112;5.420;2023-08-08T02:24:11;7.57;;;1.88;;
75417;SDS011;63997;52.112;5.420;2023-08-08T02:26:38;7.13;;;1.83;;
75417;SDS011;63997;52.112;5.420;2023-08-08T02:29:05;4.88;;;1.50;;
75417;SDS011;63997;52.112;5.420;2023-08-08T02:31:31;7.15;;;2.10;;
75417;SDS011;63997;52.112;5.420;2023-08-08T02:33:58;11.80;;;1.97;;
75417;SDS011;63997;52.112;5.420;2023-08-08T02:36:24;8.75;;;2.40;;
75417;SDS011;63997;52.112;5.420;2023-08-08T02:38:51;3.50;;;1.80;;
75417;SDS011;63997;52.112;5.420;2023-08-08T02:41:28;6.03;;;1.67;;
75417;SDS011;63997;52.112;5.420;2023-08-08T02:43:56;5.63;;;1.77;;
75417;SDS011;63997;52.112;5.420;2023-08-08T02:46:22;7.47;;;1.67;;
75417;SDS011;63997;52.112;5.420;2023-08-08T02:48:48;11.77;;;2.00;;
75417;SDS011;63997;52.112;5.420;2023-08-08T02:51:15;5.07;;;1.77;;
75417;SDS011;63997;52.112;5.420;2023-08-08T02:53:41;7.30;;;2.15;;
75417;SDS011;63997;52.112;5.420;2023-08-08T02:56:08;10.88;;;1.92;;
75417;SDS011;63997;52.112;5.420;2023-08-08T02:58:34;8.40;;;1.37;;
75417;SDS011;63997;52.112;5.420;2023-08-08T03:01:00;9.88;;;1.75;;
75417;SDS011;63997;52.112;5.420;2023-08-08T03:03:27;6.32;;;1.58;;
75417;SDS011;63997;52.112;5.420;2023-08-08T03:05:54;6.50;;;1.73;;
75417;SDS011;63997;52.112;5.420;2023-08-08T03:08:21;7.57;;;1.88;;
75417;SDS011;63997;52.112;5.420;2023-08-08T03:10:47;9.57;;;2.27;;
75417;SDS011;63997;52.112;5.420;2023-08-08T03:13:14;10.85;;;2.10;;
75417;SDS011;63997;52.112;5.420;2023-08-08T03:15:40;9.18;;;2.20;;
75417;SDS011;63997;52.112;5.420;2023-08-08T03:18:07;5.57;;;2.20;;
75417;SDS011;63997;52.112;5.420;2023-08-08T03:20:33;11.75;;;3.03;;
75417;SDS011;63997;52.112;5.420;2023-08-08T03:23:00;6.30;;;2.10;;
75417;SDS011;63997;52.112;5.420;2023-08-08T03:25:26;5.68;;;2.03;;
75417;SDS011;63997;52.112;5.420;2023-08-08T03:27:53;7.00;;;2.40;;
75417;SDS011;63997;52.112;5.420;2023-08-08T03:30:19;5.18;;;2.42;;
75417;SDS011;63997;52.112;5.420;2023-08-08T03:32:46;4.57;;;1.77;;
75417;SDS011;63997;52.112;5.420;2023-08-08T03:35:13;5.87;;;2.40;;
75417;SDS011;63997;52.112;5.420;2023-08-08T03:37:41;6.00;;;2.20;;
75417;SDS011;63997;52.112;5.420;2023-08-08T03:40:08;7.97;;;2.78;;
75417;SDS011;63997;52.112;5.420;2023-08-08T03:42:35;7.55;;;2.40;;
75417;SDS011;63997;52.112;5.420;2023-08-08T03:45:01;5.28;;;2.17;;
75417;SDS011;63997;52.112;5.420;2023-08-08T03:47:28;5.43;;;2.10;;
75417;SDS011;63997;52.112;5.420;2023-08-08T03:49:55;6.22;;;3.20;;
75417;SDS011;63997;52.112;5.420;2023-08-08T03:52:23;13.40;;;2.85;;
75417;SDS011;63997;52.112;5.420;2023-08-08T03:54:51;7.13;;;2.53;;
75417;SDS011;63997;52.112;5.420;2023-08-08T03:57:18;6.13;;;3.13;;
75417;SDS011;63997;52.112;5.420;2023-08-08T03:59:44;7.60;;;2.97;;
75417;SDS011;63997;52.112;5.420;2023-08-08T04:02:11;9.07;;;3.58;;
75417;SDS011;63997;52.112;5.420;2023-08-08T04:04:37;8.30;;;2.30;;
75417;SDS011;63997;52.112;5.420;2023-08-08T04:07:05;6.43;;;2.90;;
75417;SDS011;63997;52.112;5.420;2023-08-08T04:09:31;6.10;;;2.75;;
75417;SDS011;63997;52.112;5.420;2023-08-08T04:11:57;4.37;;;2.97;;
75417;SDS011;63997;52.112;5.420;2023-08-08T04:14:24;8.45;;;2.90;;
75417;SDS011;63997;52.112;5.420;2023-08-08T04:16:51;4.78;;;2.58;;
75417;SDS011;63997;52.112;5.420;2023-08-08T04:19:17;5.22;;;2.55;;
75417;SDS011;63997;52.112;5.420;2023-08-08T04:21:44;6.60;;;2.60;;
75417;SDS011;63997;52.112;5.420;2023-08-08T04:24:11;7.33;;;3.00;;
75417;SDS011;63997;52.112;5.420;2023-08-08T04:26:38;5.72;;;2.58;;
75417;SDS011;63997;52.112;5.420;2023-08-08T04:29:05;3.95;;;2.15;;
75417;SDS011;63997;52.112;5.420;2023-08-08T04:31:32;6.07;;;2.60;;
75417;SDS011;63997;52.112;5.420;2023-08-08T04:33:59;6.95;;;2.10;;
75417;SDS011;63997;52.112;5.420;2023-08-08T04:36:27;8.00;;;2.30;;
75417;SDS011;63997;52.112;5.420;2023-08-08T04:38:54;5.80;;;2.45;;
75417;SDS011;63997;52.112;5.420;2023-08-08T04:41:21;6.35;;;2.67;;
75417;SDS011;63997;52.112;5.420;2023-08-08T04:43:48;4.55;;;2.40;;
75417;SDS011;63997;52.112;5.420;2023-08-08T04:46:14;7.38;;;2.42;;
75417;SDS011;63997;52.112;5.420;2023-08-08T04:48:40;5.40;;;2.50;;
75417;SDS011;63997;52.112;5.420;2023-08-08T04:51:07;9.07;;;2.88;;
75417;SDS011;63997;52.112;5.420;2023-08-08T04:53:35;5.63;;;2.40;;
75417;SDS011;63997;52.112;5.420;2023-08-08T04:56:01;4.97;;;2.22;;
75417;SDS011;63997;52.112;5.420;2023-08-08T04:58:28;7.15;;;2.60;;
75417;SDS011;63997;52.112;5.420;2023-08-08T05:00:54;6.97;;;2.37;;
75417;SDS011;63997;52.112;5.420;2023-08-08T05:03:21;7.15;;;2.20;;
75417;SDS011;63997;52.112;5.420;2023-08-08T05:05:48;6.50;;;2.42;;
75417;SDS011;63997;52.112;5.420;2023-08-08T05:08:14;10.20;;;2.85;;
75417;SDS011;63997;52.112;5.420;2023-08-08T05:10:40;3.03;;;2.00;;
75417;SDS011;63997;52.112;5.420;2023-08-08T05:13:07;5.50;;;2.60;;
75417;SDS011;63997;52.112;5.420;2023-08-08T05:15:34;4.85;;;2.13;;
75417;SDS011;63997;52.112;5.420;2023-08-08T05:18:00;5.85;;;2.60;;
75417;SDS011;63997;52.112;5.420;2023-08-08T05:20:27;7.20;;;2.17;;
75417;SDS011;63997;52.112;5.420;2023-08-08T05:22:54;7.60;;;2.40;;
75417;SDS011;63997;52.112;5.420;2023-08-08T05:25:20;6.10;;;2.17;;
75417;SDS011;63997;52.112;5.420;2023-08-08T05:27:46;7.53;;;2.00;;
75417;SDS011;63997;52.112;5.420;2023-08-08T05:30:14;6.18;;;2.28;;
75417;SDS011;63997;52.112;5.420;2023-08-08T05:32:41;10.38;;;2.50;;
75417;SDS011;63997;52.112;5.420;2023-08-08T05:35:07;4.07;;;2.30;;
75417;SDS011;63997;52.112;5.420;2023-08-08T05:37:34;3.87;;;1.80;;
75417;SDS011;63997;52.112;5.420;2023-08-08T05:40:00;5.60;;;1.83;;
75417;SDS011;63997;52.112;5.420;2023-08-08T05:42:27;6.10;;;1.60;;
75417;SDS011;63997;52.112;5.420;2023-08-08T05:44:53;5.10;;;1.65;;
75417;SDS011;63997;52.112;5.420;2023-08-08T05:47:23;6.68;;;1.80;;
75417;SDS011;63997;52.112;5.420;2023-08-08T05:49:49;3.60;;;1.30;;
75417;SDS011;63997;52.112;5.420;2023-08-08T05:52:16;5.03;;;1.40;;
75417;SDS011;63997;52.112;5.420;2023-08-08T05:54:45;5.10;;;1.58;;
75417;SDS011;63997;52.112;5.420;2023-08-08T05:57:11;5.47;;;1.63;;
75417;SDS011;63997;52.112;5.420;2023-08-08T05:59:37;4.82;;;1.25;;
75417;SDS011;63997;52.112;5.420;2023-08-08T06:02:04;5.73;;;1.50;;
75417;SDS011;63997;52.112;5.420;2023-08-08T06:04:31;2.78;;;1.25;;
75417;SDS011;63997;52.112;5.420;2023-08-08T06:06:57;6.63;;;2.10;;
75417;SDS011;63997;52.112;5.420;2023-08-08T06:09:24;3.25;;;1.10;;
75417;SDS011;63997;52.112;5.420;2023-08-08T06:11:51;3.22;;;1.10;;
75417;SDS011;63997;52.112;5.420;2023-08-08T06:14:17;4.27;;;1.23;;
75417;SDS011;63997;52.112;5.420;2023-08-08T06:16:44;3.00;;;0.90;;
75417;SDS011;63997;52.112;5.420;2023-08-08T06:19:15;5.72;;;1.00;;
75417;SDS011;63997;52.112;5.420;2023-08-08T06:21:46;1.40;;;0.98;;
75417;SDS011;63997;52.112;5.420;2023-08-08T06:24:13;2.75;;;0.85;;
75417;SDS011;63997;52.112;5.420;2023-08-08T06:26:39;2.13;;;0.90;;
75417;SDS011;63997;52.112;5.420;2023-08-08T06:29:06;2.22;;;0.80;;
75417;SDS011;63997;52.112;5.420;2023-08-08T06:31:32;4.40;;;1.20;;
75417;SDS011;63997;52.112;5.420;2023-08-08T06:33:59;2.30;;;0.60;;
75417;SDS011;63997;52.112;5.420;2023-08-08T06:36:25;2.15;;;0.77;;
75417;SDS011;63997;52.112;5.420;2023-08-08T06:38:52;7.70;;;0.80;;
75417;SDS011;63997;52.112;5.420;2023-08-08T06:41:18;2.67;;;0.60;;
75417;SDS011;63997;52.112;5.420;2023-08-08T06:43:45;1.35;;;0.73;;
75417;SDS011;63997;52.112;5.420;2023-08-08T06:46:11;2.42;;;0.65;;
75417;SDS011;63997;52.112;5.420;2023-08-08T06:48:38;3.90;;;0.60;;
75417;SDS011;63997;52.112;5.420;2023-08-08T06:51:04;3.43;;;0.47;;
75417;SDS011;63997;52.112;5.420;2023-08-08T06:53:31;3.10;;;0.50;;
75417;SDS011;63997;52.112;5.420;2023-08-08T06:55:57;2.58;;;0.57;;
75417;SDS011;63997;52.112;5.420;2023-08-08T06:58:24;3.03;;;0.47;;
75417;SDS011;63997;52.112;5.420;2023-08-08T07:00:50;4.13;;;0.40;;
75417;SDS011;63997;52.112;5.420;2023-08-08T07:03:17;2.20;;;0.50;;
75417;SDS011;63997;52.112;5.420;2023-08-08T07:05:44;2.22;;;0.68;;
75417;SDS011;63997;52.112;5.420;2023-08-08T07:08:10;1.35;;;0.40;;
75417;SDS011;63997;52.112;5.420;2023-08-08T07:10:37;4.45;;;0.50;;
75417;SDS011;63997;52.112;5.420;2023-08-08T07:13:04;2.13;;;0.75;;
75417;SDS011;63997;52.112;5.420;2023-08-08T07:15:30;3.70;;;0.50;;
75417;SDS011;63997;52.112;5.420;2023-08-08T07:17:58;4.35;;;0.40;;
75417;SDS011;63997;52.112;5.420;2023-08-08T07:20:25;2.53;;;0.40;;
75417;SDS011;63997;52.112;5.420;2023-08-08T07:22:52;3.35;;;0.55;;
75417;SDS011;63997;52.112;5.420;2023-08-08T07:25:19;1.98;;;0.45;;
75417;SDS011;63997;52.112;5.420;2023-08-08T07:27:45;2.57;;;0.40;;
75417;SDS011;63997;52.112;5.420;2023-08-08T07:30:12;1.90;;;0.40;;
75417;SDS011;63997;52.112;5.420;2023-08-08T07:32:39;2.15;;;0.30;;
75417;SDS011;63997;52.112;5.420;2023-08-08T07:35:06;2.60;;;0.30;;
75417;SDS011;63997;52.112;5.420;2023-08-08T07:37:34;6.57;;;1.02;;
75417;SDS011;63997;52.112;5.420;2023-08-08T07:40:02;2.00;;;0.63;;
75417;SDS011;63997;52.112;5.420;2023-08-08T07:42:30;1.92;;;0.47;;
75417;SDS011;63997;52.112;5.420;2023-08-08T07:44:56;1.80;;;0.30;;
75417;SDS011;63997;52.112;5.420;2023-08-08T07:47:23;1.10;;;0.20;;
75417;SDS011;63997;52.112;5.420;2023-08-08T07:49:49;0.93;;;0.25;;
75417;SDS011;63997;52.112;5.420;2023-08-08T07:52:16;3.67;;;0.40;;
75417;SDS011;63997;52.112;5.420;2023-08-08T07:54:42;2.45;;;0.45;;
75417;SDS011;63997;52.112;5.420;2023-08-08T07:57:08;2.10;;;0.30;;
75417;SDS011;63997;52.112;5.420;2023-08-08T07:59:37;5.70;;;0.40;;
75417;SDS011;63997;52.112;5.420;2023-08-08T08:02:03;0.88;;;0.40;;
75417;SDS011;63997;52.112;5.420;2023-08-08T08:04:31;2.27;;;0.20;;
75417;SDS011;63997;52.112;5.420;2023-08-08T08:06:57;1.67;;;0.20;;
75417;SDS011;63997;52.112;5.420;2023-08-08T08:09:24;0.65;;;0.25;;
75417;SDS011;63997;52.112;5.420;2023-08-08T08:11:50;3.03;;;0.30;;
75417;SDS011;63997;52.112;5.420;2023-08-08T08:14:17;2.78;;;0.20;;
75417;SDS011;63997;52.112;5.420;2023-08-08T08:16:44;3.93;;;0.30;;
75417;SDS011;63997;52.112;5.420;2023-08-08T08:19:11;2.22;;;0.20;;
75417;SDS011;63997;52.112;5.420;2023-08-08T08:21:37;1.58;;;0.25;;
75417;SDS011;63997;52.112;5.420;2023-08-08T08:24:04;1.08;;;0.30;;
75417;SDS011;63997;52.112;5.420;2023-08-08T08:26:31;1.20;;;0.40;;
75417;SDS011;63997;52.112;5.420;2023-08-08T08:28:58;1.40;;;0.83;;
75417;SDS011;63997;52.112;5.420;2023-08-08T08:31:24;1.45;;;0.25;;
75417;SDS011;63997;52.112;5.420;2023-08-08T08:33:51;0.63;;;0.30;;
75417;SDS011;63997;52.112;5.420;2023-08-08T08:36:17;3.05;;;0.43;;
75417;SDS011;63997;52.112;5.420;2023-08-08T08:38:44;1.10;;;0.40;;
75417;SDS011;63997;52.112;5.420;2023-08-08T08:41:11;3.50;;;0.23;;
75417;SDS011;63997;52.112;5.420;2023-08-08T08:43:40;3.15;;;0.30;;
75417;SDS011;63997;52.112;5.420;2023-08-08T08:46:07;7.20;;;0.20;;
75417;SDS011;63997;52.112;5.420;2023-08-08T08:48:37;0.75;;;0.20;;
75417;SDS011;63997;52.112;5.420;2023-08-08T08:51:03;0.40;;;0.20;;
75417;SDS011;63997;52.112;5.420;2023-08-08T08:53:29;1.63;;;0.20;;
75417;SDS011;63997;52.112;5.420;2023-08-08T08:55:57;2.20;;;0.20;;
75417;SDS011;63997;52.112;5.420;2023-08-08T08:58:24;1.15;;;0.20;;
75417;SDS011;63997;52.112;5.420;2023-08-08T09:00:51;1.85;;;0.28;;
75417;SDS011;63997;52.112;5.420;2023-08-08T09:03:18;0.35;;;0.10;;
75417;SDS011;63997;52.112;5.420;2023-08-08T09:05:46;0.63;;;0.20;;
75417;SDS011;63997;52.112;5.420;2023-08-08T09:08:14;1.27;;;0.60;;
75417;SDS011;63997;52.112;5.420;2023-08-08T09:10:41;1.90;;;0.22;;
75417;SDS011;63997;52.112;5.420;2023-08-08T09:13:08;0.40;;;0.22;;
75417;SDS011;63997;52.112;5.420;2023-08-08T09:15:34;0.40;;;0.20;;
75417;SDS011;63997;52.112;5.420;2023-08-08T09:18:01;2.63;;;0.27;;
75417;SDS011;63997;52.112;5.420;2023-08-08T09:20:28;0.73;;;0.15;;
75417;SDS011;63997;52.112;5.420;2023-08-08T09:22:55;0.82;;;0.20;;
75417;SDS011;63997;52.112;5.420;2023-08-08T09:25:22;3.17;;;0.28;;
75417;SDS011;63997;52.112;5.420;2023-08-08T09:27:53;0.40;;;0.20;;
75417;SDS011;63997;52.112;5.420;2023-08-08T09:30:20;1.90;;;0.20;;
75417;SDS011;63997;52.112;5.420;2023-08-08T09:32:46;0.65;;;0.20;;
75417;SDS011;63997;52.112;5.420;2023-08-08T09:35:14;2.17;;;0.13;;
75417;SDS011;63997;52.112;5.420;2023-08-08T09:37:41;1.17;;;0.10;;
75417;SDS011;63997;52.112;5.420;2023-08-08T09:40:08;0.30;;;0.20;;
75417;SDS011;63997;52.112;5.420;2023-08-08T09:42:39;0.50;;;0.50;;
75417;SDS011;63997;52.112;5.420;2023-08-08T09:45:07;3.50;;;0.25;;
75417;SDS011;63997;52.112;5.420;2023-08-08T09:47:35;1.33;;;0.43;;
75417;SDS011;63997;52.112;5.420;2023-08-08T09:50:02;1.23;;;0.20;;
75417;SDS011;63997;52.112;5.420;2023-08-08T09:52:35;0.40;;;0.20;;
75417;SDS011;63997;52.112;5.420;2023-08-08T09:55:05;1.27;;;0.20;;
75417;SDS011;63997;52.112;5.420;2023-08-08T09:57:32;0.73;;;0.20;;
75417;SDS011;63997;52.112;5.420;2023-08-08T09:59:59;1.02;;;0.40;;
75417;SDS011;63997;52.112;5.420;2023-08-08T10:02:27;1.23;;;0.50;;
75417;SDS011;63997;52.112;5.420;2023-08-08T10:04:54;0.70;;;0.20;;
75417;SDS011;63997;52.112;5.420;2023-08-08T10:07:23;1.20;;;0.30;;
75417;SDS011;63997;52.112;5.420;2023-08-08T10:09:49;0.50;;;0.20;;
75417;SDS011;63997;52.112;5.420;2023-08-08T10:12:16;2.97;;;0.20;;
75417;SDS011;63997;52.112;5.420;2023-08-08T10:14:44;0.57;;;0.20;;
75417;SDS011;63997;52.112;5.420;2023-08-08T10:17:14;0.75;;;0.38;;
75417;SDS011;63997;52.112;5.420;2023-08-08T10:19:54;1.80;;;0.30;;
75417;SDS011;63997;52.112;5.420;2023-08-08T10:22:21;1.63;;;0.20;;
75417;SDS011;63997;52.112;5.420;2023-08-08T10:24:53;0.88;;;0.30;;
75417;SDS011;63997;52.112;5.420;2023-08-08T10:27:28;3.78;;;0.40;;
75417;SDS011;63997;52.112;5.420;2023-08-08T10:30:07;2.38;;;0.45;;
75417;SDS011;63997;52.112;5.420;2023-08-08T10:32:40;2.23;;;0.30;;
75417;SDS011;63997;52.112;5.420;2023-08-08T10:35:14;1.00;;;0.40;;
75417;SDS011;63997;52.112;5.420;2023-08-08T10:37:51;1.88;;;0.40;;
75417;SDS011;63997;52.112;5.420;2023-08-08T10:40:19;1.50;;;0.30;;
75417;SDS011;63997;52.112;5.420;2023-08-08T10:42:46;2.13;;;0.45;;
75417;SDS011;63997;52.112;5.420;2023-08-08T10:45:14;1.40;;;0.30;;
75417;SDS011;63997;52.112;5.420;2023-08-08T10:47:42;1.13;;;0.30;;
75417;SDS011;63997;52.112;5.420;2023-08-08T10:50:14;0.50;;;0.40;;
75417;SDS011;63997;52.112;5.420;2023-08-08T10:55:25;2.17;;;0.40;;
75417;SDS011;63997;52.112;5.420;2023-08-08T10:58:14;3.03;;;0.30;;
75417;SDS011;63997;52.112;5.420;2023-08-08T11:00:41;1.30;;;0.30;;
75417;SDS011;63997;52.112;5.420;2023-08-08T11:03:08;0.88;;;0.30;;
75417;SDS011;63997;52.112;5.420;2023-08-08T11:05:36;2.50;;;0.43;;
75417;SDS011;63997;52.112;5.420;2023-08-08T11:08:04;2.63;;;0.47;;
75417;SDS011;63997;52.112;5.420;2023-08-08T11:10:38;2.17;;;0.37;;
75417;SDS011;63997;52.112;5.420;2023-08-08T11:13:07;1.42;;;0.40;;
75417;SDS011;63997;52.112;5.420;2023-08-08T11:15:34;0.73;;;0.40;;
75417;SDS011;63997;52.112;5.420;2023-08-08T11:18:02;1.25;;;0.30;;
75417;SDS011;63997;52.112;5.420;2023-08-08T11:20:33;3.42;;;0.47;;
75417;SDS011;63997;52.112;5.420;2023-08-08T11:23:01;0.70;;;0.53;;
75417;SDS011;63997;52.112;5.420;2023-08-08T11:25:28;0.93;;;0.30;;
75417;SDS011;63997;52.112;5.420;2023-08-08T11:27:57;0.60;;;0.30;;
75417;SDS011;63997;52.112;5.420;2023-08-08T11:30:29;1.58;;;0.30;;
75417;SDS011;63997;52.112;5.420;2023-08-08T11:32:56;0.98;;;0.20;;
75417;SDS011;63997;52.112;5.420;2023-08-08T11:35:26;1.60;;;0.20;;
75417;SDS011;63997;52.112;5.420;2023-08-08T11:37:53;0.47;;;0.20;;
75417;SDS011;63997;52.112;5.420;2023-08-08T11:40:23;1.33;;;0.30;;
75417;SDS011;63997;52.112;5.420;2023-08-08T11:42:52;1.25;;;0.40;;
75417;SDS011;63997;52.112;5.420;2023-08-08T11:45:20;1.08;;;0.30;;
75417;SDS011;63997;52.112;5.420;2023-08-08T11:47:51;0.67;;;0.33;;
75417;SDS011;63997;52.112;5.420;2023-08-08T11:50:20;1.38;;;0.28;;
75417;SDS011;63997;52.112;5.420;2023-08-08T11:52:50;1.33;;;0.40;;
75417;SDS011;63997;52.112;5.420;2023-08-08T11:55:17;0.40;;;0.20;;
75417;SDS011;63997;52.112;5.420;2023-08-08T11:57:48;0.70;;;0.40;;
75417;SDS011;63997;52.112;5.420;2023-08-08T12:00:16;0.73;;;0.30;;
75417;SDS011;63997;52.112;5.420;2023-08-08T12:02:44;1.00;;;0.28;;
75417;SDS011;63997;52.112;5.420;2023-08-08T12:05:12;2.55;;;0.50;;
75417;SDS011;63997;52.112;5.420;2023-08-08T12:07:43;1.08;;;0.20;;
75417;SDS011;63997;52.112;5.420;2023-08-08T12:10:15;1.05;;;0.35;;
75417;SDS011;63997;52.112;5.420;2023-08-08T12:12:46;1.53;;;0.30;;
75417;SDS011;63997;52.112;5.420;2023-08-08T12:15:19;0.88;;;0.30;;
75417;SDS011;63997;52.112;5.420;2023-08-08T12:17:46;1.30;;;0.30;;
75417;SDS011;63997;52.112;5.420;2023-08-08T12:20:14;1.25;;;0.40;;
75417;SDS011;63997;52.112;5.420;2023-08-08T12:22:41;0.75;;;0.30;;
75417;SDS011;63997;52.112;5.420;2023-08-08T12:25:08;1.20;;;0.30;;
75417;SDS011;63997;52.112;5.420;2023-08-08T12:27:34;1.65;;;0.28;;
75417;SDS011;63997;52.112;5.420;2023-08-08T12:30:01;1.02;;;0.30;;
75417;SDS011;63997;52.112;5.420;2023-08-08T12:32:28;5.13;;;0.40;;
75417;SDS011;63997;52.112;5.420;2023-08-08T12:34:55;6.38;;;1.65;;
75417;SDS011;63997;52.112;5.420;2023-08-08T12:37:22;5.60;;;0.23;;
75417;SDS011;63997;52.112;5.420;2023-08-08T12:39:50;2.20;;;0.22;;
75417;SDS011;63997;52.112;5.420;2023-08-08T12:42:16;1.55;;;0.22;;
75417;SDS011;63997;52.112;5.420;2023-08-08T12:44:43;0.45;;;0.20;;
75417;SDS011;63997;52.112;5.420;2023-08-08T12:47:10;2.70;;;0.30;;
75417;SDS011;63997;52.112;5.420;2023-08-08T12:49:40;2.27;;;0.43;;
75417;SDS011;63997;52.112;5.420;2023-08-08T12:52:06;2.58;;;0.30;;
75417;SDS011;63997;52.112;5.420;2023-08-08T12:54:33;0.80;;;0.20;;
75417;SDS011;63997;52.112;5.420;2023-08-08T12:56:59;0.63;;;0.40;;
75417;SDS011;63997;52.112;5.420;2023-08-08T12:59:26;3.25;;;0.30;;
75417;SDS011;63997;52.112;5.420;2023-08-08T13:01:53;3.17;;;0.47;;
75417;SDS011;63997;52.112;5.420;2023-08-08T13:04:19;1.60;;;0.30;;
75417;SDS011;63997;52.112;5.420;2023-08-08T13:06:47;1.20;;;0.38;;
75417;SDS011;63997;52.112;5.420;2023-08-08T13:09:17;1.98;;;0.30;;
75417;SDS011;63997;52.112;5.420;2023-08-08T13:11:44;2.00;;;0.40;;
75417;SDS011;63997;52.112;5.420;2023-08-08T13:14:10;1.00;;;0.30;;
75417;SDS011;63997;52.112;5.420;2023-08-08T13:16:37;2.40;;;0.55;;
75417;SDS011;63997;52.112;5.420;2023-08-08T13:19:04;4.82;;;0.40;;
75417;SDS011;63997;52.112;5.420;2023-08-08T13:21:32;1.50;;;0.40;;
75417;SDS011;63997;52.112;5.420;2023-08-08T13:23:59;3.30;;;0.30;;
75417;SDS011;63997;52.112;5.420;2023-08-08T13:26:26;3.10;;;0.47;;
75417;SDS011;63997;52.112;5.420;2023-08-08T13:28:53;1.08;;;0.32;;
75417;SDS011;63997;52.112;5.420;2023-08-08T13:31:19;1.42;;;0.40;;
75417;SDS011;63997;52.112;5.420;2023-08-08T13:33:46;3.28;;;0.43;;
75417;SDS011;63997;52.112;5.420;2023-08-08T13:36:12;1.35;;;0.25;;
75417;SDS011;63997;52.112;5.420;2023-08-08T13:38:38;0.93;;;0.30;;
75417;SDS011;63997;52.112;5.420;2023-08-08T13:41:05;0.55;;;0.20;;
75417;SDS011;63997;52.112;5.420;2023-08-08T13:43:31;1.48;;;0.30;;
75417;SDS011;63997;52.112;5.420;2023-08-08T13:45:58;5.78;;;1.23;;
75417;SDS011;63997;52.112;5.420;2023-08-08T13:48:24;7.00;;;0.60;;
75417;SDS011;63997;52.112;5.420;2023-08-08T13:50:52;1.73;;;0.20;;
75417;SDS011;63997;52.112;5.420;2023-08-08T13:53:18;0.80;;;0.40;;
75417;SDS011;63997;52.112;5.420;2023-08-08T13:55:45;1.80;;;0.40;;
75417;SDS011;63997;52.112;5.420;2023-08-08T13:58:11;3.63;;;0.35;;
75417;SDS011;63997;52.112;5.420;2023-08-08T14:00:42;0.75;;;0.30;;
75417;SDS011;63997;52.112;5.420;2023-08-08T14:03:11;1.23;;;0.50;;
75417;SDS011;63997;52.112;5.420;2023-08-08T14:05:40;1.50;;;0.30;;
75417;SDS011;63997;52.112;5.420;2023-08-08T14:08:06;2.60;;;0.28;;
75417;SDS011;63997;52.112;5.420;2023-08-08T14:10:33;2.13;;;0.30;;
75417;SDS011;63997;52.112;5.420;2023-08-08T14:12:59;3.15;;;0.30;;
75417;SDS011;63997;52.112;5.420;2023-08-08T14:15:26;1.57;;;0.27;;
75417;SDS011;63997;52.112;5.420;2023-08-08T14:17:52;1.00;;;0.30;;
75417;SDS011;63997;52.112;5.420;2023-08-08T14:20:19;1.60;;;0.20;;
75417;SDS011;63997;52.112;5.420;2023-08-08T14:22:45;3.22;;;0.47;;
75417;SDS011;63997;52.112;5.420;2023-08-08T14:25:13;1.38;;;0.30;;
75417;SDS011;63997;52.112;5.420;2023-08-08T14:27:40;1.47;;;0.50;;
75417;SDS011;63997;52.112;5.420;2023-08-08T14:30:07;2.50;;;0.55;;
75417;SDS011;63997;52.112;5.420;2023-08-08T14:32:33;1.35;;;0.40;;
75417;SDS011;63997;52.112;5.420;2023-08-08T14:35:00;1.33;;;0.25;;
75417;SDS011;63997;52.112;5.420;2023-08-08T14:37:28;1.27;;;0.32;;
75417;SDS011;63997;52.112;5.420;2023-08-08T14:39:55;2.43;;;0.40;;
75417;SDS011;63997;52.112;5.420;2023-08-08T14:42:21;1.98;;;0.40;;
75417;SDS011;63997;52.112;5.420;2023-08-08T14:44:48;1.35;;;0.30;;
75417;SDS011;63997;52.112;5.420;2023-08-08T14:47:14;1.77;;;0.40;;
75417;SDS011;63997;52.112;5.420;2023-08-08T14:49:40;3.03;;;1.10;;
75417;SDS011;63997;52.112;5.420;2023-08-08T14:52:07;3.67;;;0.30;;
75417;SDS011;63997;52.112;5.420;2023-08-08T14:54:35;1.27;;;0.40;;